createdAt,value
2023-05-09T00:02:22.311Z,87.48
2023-05-09T00:04:48.925Z,87.73
2023-05-09T00:07:15.618Z,86.85
2023-05-09T00:09:42.120Z,86.67
2023-05-09T00:12:09.092Z,86.32
2023-05-09T00:14:35.679Z,86.67
2023-05-09T00:17:02.147Z,84.71
2023-05-09T00:19:28.603Z,84.03
2023-05-09T00:21:55.074Z,84.57
2023-05-09T00:24:21.637Z,84.20
2023-05-09T00:26:48.119Z,84.46
2023-05-09T00:29:14.596Z,84.42
2023-05-09T00:31:41.136Z,84.37
2023-05-09T00:34:07.623Z,84.44
2023-05-09T00:36:34.112Z,84.12
2023-05-09T00:39:00.740Z,84.35
2023-05-09T00:41:27.184Z,85.30
2023-05-09T00:43:53.666Z,85.83
2023-05-09T00:46:20.266Z,85.67
2023-05-09T00:48:46.927Z,86.21
2023-05-09T00:51:13.426Z,87.08
2023-05-09T00:53:39.965Z,85.62
2023-05-09T00:56:06.878Z,86.44
2023-05-09T00:58:33.330Z,86.54
2023-05-09T01:01:01.850Z,86.05
2023-05-09T01:03:28.585Z,86.75
2023-05-09T01:05:57.957Z,85.35
2023-05-09T01:08:43.222Z,84.92
2023-05-09T01:11:12.967Z,86.90
2023-05-09T01:14:01.016Z,87.19
2023-05-09T01:16:54.088Z,87.63
2023-05-09T01:19:59.368Z,88.60
2023-05-09T01:22:30.323Z,89.34
2023-05-09T01:25:15.324Z,87.80
2023-05-09T01:28:12.831Z,87.25
2023-05-09T01:30:39.368Z,85.13
2023-05-09T01:33:07.019Z,84.36
2023-05-09T01:35:33.521Z,85.14
2023-05-09T01:38:00.058Z,84.47
2023-05-09T01:40:26.680Z,86.53
2023-05-09T01:43:02.614Z,85.80
2023-05-09T01:45:29.138Z,86.70
2023-05-09T01:47:56.231Z,89.14
2023-05-09T01:50:22.802Z,89.75
2023-05-09T01:52:49.849Z,90.41
2023-05-09T01:55:16.825Z,90.26
2023-05-09T01:57:44.046Z,89.59
2023-05-09T02:00:12.899Z,88.63
2023-05-09T02:02:39.626Z,88.06
2023-05-09T02:05:06.691Z,88.32
2023-05-09T02:07:33.177Z,89.70
2023-05-09T02:09:59.611Z,90.63
2023-05-09T02:12:26.281Z,91.40
2023-05-09T02:14:52.759Z,91.69
2023-05-09T02:17:19.357Z,91.31
2023-05-09T02:19:45.988Z,91.09
2023-05-09T02:22:12.645Z,90.87
2023-05-09T02:24:39.109Z,90.83
2023-05-09T02:27:07.144Z,90.38
2023-05-09T02:29:40.587Z,90.91
2023-05-09T02:32:09.602Z,91.02
2023-05-09T02:34:37.396Z,90.86
2023-05-09T02:37:03.995Z,90.57
2023-05-09T02:39:30.942Z,90.59
2023-05-09T02:41:57.410Z,90.61
2023-05-09T02:44:23.875Z,91.42
2023-05-09T02:46:50.403Z,91.92
2023-05-09T02:49:30.943Z,92.54
2023-05-09T02:51:58.787Z,92.64
2023-05-09T02:54:25.240Z,92.26
2023-05-09T02:56:51.722Z,91.20
2023-05-09T02:59:18.585Z,90.47
2023-05-09T03:01:45.074Z,89.78
2023-05-09T03:04:11.644Z,89.70
2023-05-09T03:06:38.411Z,90.13
2023-05-09T03:09:04.899Z,91.06
2023-05-09T03:11:31.493Z,90.89
2023-05-09T03:13:58.123Z,91.08
2023-05-09T03:16:24.653Z,90.42
2023-05-09T03:18:51.205Z,90.82
2023-05-09T03:21:17.774Z,91.28
2023-05-09T03:23:44.594Z,90.44
2023-05-09T03:26:11.032Z,89.51
2023-05-09T03:28:38.414Z,89.10
2023-05-09T03:31:05.423Z,87.92
2023-05-09T03:33:31.926Z,88.42
2023-05-09T03:35:58.390Z,90.04
2023-05-09T03:38:24.823Z,91.96
2023-05-09T03:40:51.343Z,92.18
2023-05-09T03:43:17.800Z,92.67
2023-05-09T03:45:44.248Z,91.46
2023-05-09T03:48:11.350Z,89.40
2023-05-09T03:50:37.903Z,87.81
2023-05-09T03:53:04.416Z,87.23
2023-05-09T03:55:30.900Z,86.32
2023-05-09T03:57:57.656Z,86.03
2023-05-09T04:00:26.364Z,86.00
2023-05-09T04:02:53.100Z,84.94
2023-05-09T04:05:19.697Z,83.81
2023-05-09T04:07:46.295Z,83.01
2023-05-09T04:10:12.795Z,82.68
2023-05-09T04:12:39.362Z,83.22
2023-05-09T04:15:06.743Z,82.56
2023-05-09T04:17:33.256Z,82.46
2023-05-09T04:19:59.756Z,82.14
2023-05-09T04:22:26.342Z,81.24
2023-05-09T04:24:52.950Z,80.32
2023-05-09T04:27:19.647Z,79.92
2023-05-09T04:29:46.202Z,79.87
2023-05-09T04:32:12.684Z,79.67
2023-05-09T04:34:39.351Z,80.07
2023-05-09T04:37:05.799Z,78.68
2023-05-09T04:39:32.373Z,77.84
2023-05-09T04:41:59.031Z,76.96
2023-05-09T04:44:25.669Z,77.87
2023-05-09T04:46:52.167Z,77.14
2023-05-09T04:49:18.707Z,76.43
2023-05-09T04:51:45.246Z,74.69
2023-05-09T04:54:11.749Z,73.13
2023-05-09T04:56:38.252Z,74.83
2023-05-09T04:59:04.709Z,77.20
2023-05-09T05:01:31.203Z,75.89
2023-05-09T05:03:57.752Z,76.08
2023-05-09T05:06:24.228Z,75.04
2023-05-09T05:08:50.671Z,74.43
2023-05-09T05:11:18.073Z,75.00
2023-05-09T05:13:44.811Z,71.88
2023-05-09T05:16:11.427Z,71.66
2023-05-09T05:18:37.962Z,71.54
2023-05-09T05:21:04.467Z,72.66
2023-05-09T05:23:30.926Z,73.56
2023-05-09T05:25:57.427Z,70.12
2023-05-09T05:28:23.905Z,72.35
2023-05-09T05:30:50.447Z,71.74
2023-05-09T05:33:16.953Z,71.87
2023-05-09T05:35:43.403Z,71.52
2023-05-09T05:38:09.865Z,69.78
2023-05-09T05:40:36.588Z,66.83
2023-05-09T05:43:03.049Z,66.60
2023-05-09T05:45:30.909Z,68.95
2023-05-09T05:47:58.040Z,66.25
2023-05-09T05:50:24.537Z,65.82
2023-05-09T05:52:51.059Z,64.89
2023-05-09T05:55:17.815Z,66.70
2023-05-09T05:57:44.462Z,66.44
2023-05-09T06:00:11.818Z,68.37
2023-05-09T06:02:38.489Z,67.08
2023-05-09T06:05:07.048Z,66.06
2023-05-09T06:07:33.528Z,66.77
2023-05-09T06:10:00.107Z,66.47
2023-05-09T06:12:27.985Z,65.01
2023-05-09T06:14:54.603Z,66.03
2023-05-09T06:17:21.144Z,64.92
2023-05-09T06:19:47.812Z,65.84
2023-05-09T06:22:14.303Z,64.19
2023-05-09T06:24:41.207Z,65.49
2023-05-09T06:27:07.688Z,65.75
2023-05-09T06:29:34.180Z,63.45
2023-05-09T06:32:00.813Z,66.62
2023-05-09T06:34:27.311Z,66.41
2023-05-09T06:36:53.777Z,66.13
2023-05-09T06:39:20.387Z,66.70
2023-05-09T06:41:46.847Z,65.09
2023-05-09T06:44:13.579Z,65.96
2023-05-09T06:46:40.264Z,65.00
2023-05-09T06:49:06.785Z,65.43
2023-05-09T06:51:33.441Z,66.41
2023-05-09T06:54:00.008Z,65.06
2023-05-09T06:56:26.943Z,62.70
2023-05-09T06:58:53.538Z,63.89
2023-05-09T07:01:20.137Z,63.85
2023-05-09T07:03:47.492Z,62.02
2023-05-09T07:06:13.970Z,63.56
2023-05-09T07:08:40.466Z,60.50
2023-05-09T07:11:06.912Z,61.11
2023-05-09T07:13:33.351Z,62.48
2023-05-09T07:15:59.891Z,60.96
2023-05-09T07:18:26.464Z,62.32
2023-05-09T07:20:52.957Z,63.75
2023-05-09T07:23:19.494Z,62.89
2023-05-09T07:25:45.953Z,62.53
2023-05-09T07:28:12.725Z,63.98
2023-05-09T07:30:39.742Z,60.87
2023-05-09T07:33:06.754Z,59.61
2023-05-09T07:35:33.422Z,58.26
2023-05-09T07:37:59.951Z,58.97
2023-05-09T07:40:26.547Z,59.49
2023-05-09T07:42:55.012Z,59.41
2023-05-09T07:45:23.729Z,61.49
2023-05-09T07:47:50.631Z,58.98
2023-05-09T07:50:17.387Z,62.32
2023-05-09T07:52:43.945Z,62.63
2023-05-09T07:55:12.246Z,60.86
2023-05-09T07:57:39.803Z,60.78
2023-05-09T08:00:08.915Z,62.68
2023-05-09T08:02:35.678Z,59.64
2023-05-09T08:05:02.242Z,61.28
2023-05-09T08:07:28.764Z,61.40
2023-05-09T08:09:55.234Z,60.22
2023-05-09T08:12:21.708Z,60.45
2023-05-09T08:14:48.578Z,59.69
2023-05-09T08:17:15.098Z,60.07
2023-05-09T08:19:41.567Z,59.71
2023-05-09T08:22:08.078Z,58.99
2023-05-09T08:24:34.590Z,60.54
2023-05-09T08:27:01.385Z,59.52
2023-05-09T08:29:29.005Z,58.57
2023-05-09T08:31:55.673Z,60.30
2023-05-09T08:34:22.225Z,58.52
2023-05-09T08:36:49.006Z,59.05
2023-05-09T08:39:15.511Z,59.33
2023-05-09T08:41:42.259Z,59.29
2023-05-09T08:44:09.237Z,58.25
2023-05-09T08:46:37.146Z,58.43
2023-05-09T08:49:05.545Z,61.33
2023-05-09T08:51:32.251Z,58.83
2023-05-09T08:53:58.925Z,55.79
2023-05-09T08:56:26.113Z,58.26
2023-05-09T08:58:53.719Z,58.08
2023-05-09T09:01:20.221Z,58.71
2023-05-09T09:03:49.425Z,57.62
2023-05-09T09:06:16.722Z,56.50
2023-05-09T09:08:43.868Z,52.64
2023-05-09T09:11:13.398Z,53.62
2023-05-09T09:13:41.009Z,54.94
2023-05-09T09:16:11.288Z,55.21
2023-05-09T09:18:39.616Z,54.50
2023-05-09T09:21:07.451Z,54.93
2023-05-09T09:23:33.900Z,55.64
2023-05-09T09:26:01.727Z,53.08
2023-05-09T09:28:31.110Z,55.29
2023-05-09T09:30:57.619Z,55.82
2023-05-09T09:33:25.399Z,52.40
2023-05-09T09:35:52.828Z,50.96
2023-05-09T09:38:20.037Z,52.68
2023-05-09T09:40:56.195Z,51.83
2023-05-09T09:43:29.548Z,51.75
2023-05-09T09:45:57.085Z,51.67
2023-05-09T09:48:27.258Z,50.56
2023-05-09T09:50:55.912Z,52.80
2023-05-09T09:53:23.381Z,54.36
2023-05-09T09:55:50.778Z,51.51
2023-05-09T09:58:18.203Z,51.89
2023-05-09T10:00:46.242Z,54.18
2023-05-09T10:03:18.536Z,53.02
2023-05-09T10:05:45.064Z,51.24
2023-05-09T10:08:11.909Z,50.55
2023-05-09T10:10:38.412Z,51.08
2023-05-09T10:13:11.887Z,48.86
2023-05-09T10:15:52.411Z,50.76
2023-05-09T10:18:21.457Z,50.07
2023-05-09T10:20:48.053Z,49.35
2023-05-09T10:23:14.507Z,51.09
2023-05-09T10:25:55.931Z,51.43
2023-05-09T10:28:23.214Z,48.51
2023-05-09T10:31:11.625Z,47.79
2023-05-09T10:33:44.104Z,49.01
2023-05-09T10:36:10.503Z,51.15
2023-05-09T10:38:37.154Z,48.33
2023-05-09T10:41:03.657Z,48.41
2023-05-09T10:43:32.207Z,48.53
2023-05-09T10:45:59.168Z,49.85
2023-05-09T10:48:25.692Z,47.38
2023-05-09T10:50:52.563Z,52.74
2023-05-09T10:53:19.185Z,50.42
2023-05-09T10:55:59.106Z,49.93
2023-05-09T10:58:37.452Z,50.73
2023-05-09T11:01:04.617Z,50.64
2023-05-09T11:03:53.747Z,51.15
2023-05-09T11:06:46.030Z,52.67
2023-05-09T11:09:34.464Z,49.30
2023-05-09T11:12:13.741Z,53.10
2023-05-09T11:14:47.455Z,50.15
2023-05-09T11:17:14.700Z,51.70
2023-05-09T11:19:46.952Z,52.75
2023-05-09T11:22:14.405Z,51.77
2023-05-09T11:24:45.848Z,51.80
2023-05-09T11:27:22.805Z,52.74
2023-05-09T11:29:52.430Z,54.01
2023-05-09T11:32:19.384Z,54.17
2023-05-09T11:34:45.919Z,50.69
2023-05-09T11:37:13.757Z,50.42
2023-05-09T11:39:58.579Z,51.84
2023-05-09T11:42:27.262Z,50.42
2023-05-09T11:44:53.859Z,50.87
2023-05-09T11:47:21.875Z,51.36
2023-05-09T11:49:51.772Z,50.20
2023-05-09T11:52:22.454Z,51.51
2023-05-09T11:54:49.630Z,51.82
2023-05-09T11:57:17.881Z,49.99
2023-05-09T11:59:47.618Z,54.10
2023-05-09T12:02:14.171Z,49.18
2023-05-09T12:04:40.798Z,50.77
2023-05-09T12:07:07.427Z,50.20
2023-05-09T12:09:34.669Z,50.21
2023-05-09T12:12:01.362Z,48.13
2023-05-09T12:14:33.931Z,49.02
2023-05-09T12:17:00.584Z,50.73
2023-05-09T12:19:27.271Z,48.32
2023-05-09T12:22:02.446Z,47.66
2023-05-09T12:24:29.468Z,47.71
2023-05-09T12:26:56.635Z,47.64
2023-05-09T12:29:23.751Z,47.22
2023-05-09T12:31:50.346Z,51.33
2023-05-09T12:34:17.070Z,48.48
2023-05-09T12:36:50.651Z,48.44
2023-05-09T12:39:22.351Z,49.04
2023-05-09T12:42:00.493Z,46.37
2023-05-09T12:44:29.722Z,48.64
2023-05-09T12:46:56.973Z,47.23
2023-05-09T12:49:23.522Z,48.48
2023-05-09T12:51:50.536Z,46.73
2023-05-09T12:54:23.854Z,48.06
2023-05-09T12:56:55.452Z,45.54
2023-05-09T12:59:26.679Z,44.91
2023-05-09T13:01:57.415Z,50.03
2023-05-09T13:04:24.872Z,46.02
2023-05-09T13:06:55.680Z,49.34
2023-05-09T13:09:22.920Z,45.26
2023-05-09T13:11:50.808Z,44.27
2023-05-09T13:14:20.442Z,45.99
2023-05-09T13:16:47.056Z,44.75
2023-05-09T13:19:13.601Z,43.36
2023-05-09T13:21:40.065Z,44.09
2023-05-09T13:24:06.914Z,46.70
2023-05-09T13:26:33.922Z,43.83
2023-05-09T13:29:00.411Z,43.62
2023-05-09T13:31:27.033Z,43.47
2023-05-09T13:33:53.566Z,47.09
2023-05-09T13:36:20.131Z,45.24
2023-05-09T13:38:46.792Z,42.30
2023-05-09T13:41:20.400Z,43.78
2023-05-09T13:43:47.049Z,43.14
2023-05-09T13:46:13.792Z,41.61
2023-05-09T13:48:40.334Z,42.34
2023-05-09T13:51:07.829Z,43.43
2023-05-09T13:53:35.052Z,45.04
2023-05-09T13:56:02.778Z,41.68
2023-05-09T13:58:29.838Z,41.03
2023-05-09T14:00:56.294Z,41.54
2023-05-09T14:03:22.774Z,41.89
2023-05-09T14:05:49.477Z,40.14
2023-05-09T14:08:16.829Z,40.13
2023-05-09T14:10:44.489Z,45.19
2023-05-09T14:13:12.474Z,44.56
2023-05-09T14:15:40.151Z,41.43
2023-05-09T14:18:06.764Z,40.83
2023-05-09T14:20:36.183Z,41.63
2023-05-09T14:23:02.995Z,39.19
2023-05-09T14:25:29.532Z,38.98
2023-05-09T14:27:56.102Z,42.41
2023-05-09T14:30:22.961Z,37.96
2023-05-09T14:32:49.464Z,40.70
2023-05-09T14:35:16.194Z,39.54
2023-05-09T14:37:42.781Z,39.18
2023-05-09T14:40:09.720Z,38.82
2023-05-09T14:42:36.940Z,35.82
2023-05-09T14:45:04.500Z,38.87
2023-05-09T14:47:31.090Z,34.88
2023-05-09T14:49:57.700Z,35.69
2023-05-09T14:52:24.201Z,35.82
2023-05-09T14:54:50.756Z,40.67
2023-05-09T14:57:17.391Z,37.13
2023-05-09T14:59:43.877Z,36.93
2023-05-09T15:02:10.352Z,36.85
2023-05-09T15:04:37.241Z,34.92
2023-05-09T15:07:04.797Z,34.93
2023-05-09T15:09:31.706Z,34.50
2023-05-09T15:11:58.356Z,34.68
2023-05-09T15:14:24.831Z,37.76
2023-05-09T15:16:55.117Z,36.32
2023-05-09T15:19:22.463Z,35.39
2023-05-09T15:21:49.025Z,35.76
2023-05-09T15:24:15.839Z,32.06
2023-05-09T15:26:42.354Z,32.63
2023-05-09T15:29:08.828Z,35.16
2023-05-09T15:31:35.445Z,36.88
2023-05-09T15:34:02.259Z,34.73
2023-05-09T15:36:29.907Z,32.67
2023-05-09T15:38:56.385Z,33.02
2023-05-09T15:41:23.140Z,35.58
2023-05-09T15:43:49.791Z,34.92
2023-05-09T15:46:16.839Z,36.10
2023-05-09T15:48:43.497Z,34.19
2023-05-09T15:51:11.362Z,33.70
2023-05-09T15:53:37.825Z,33.60
2023-05-09T15:56:04.454Z,32.93
2023-05-09T15:58:30.980Z,32.63
2023-05-09T16:00:57.434Z,34.53
2023-05-09T16:03:25.110Z,34.82
2023-05-09T16:05:52.050Z,34.96
2023-05-09T16:08:18.589Z,36.10
2023-05-09T16:10:48.915Z,37.54
2023-05-09T16:13:17.720Z,42.07
2023-05-09T16:15:45.307Z,39.39
2023-05-09T16:18:12.151Z,38.88
2023-05-09T16:20:38.686Z,39.23
2023-05-09T16:23:05.146Z,37.93
2023-05-09T16:25:33.919Z,39.31
2023-05-09T16:28:01.715Z,37.60
2023-05-09T16:30:28.253Z,39.44
2023-05-09T16:32:54.891Z,37.96
2023-05-09T16:35:21.861Z,39.09
2023-05-09T16:37:48.311Z,39.83
2023-05-09T16:40:15.070Z,41.23
2023-05-09T16:42:42.912Z,40.12
2023-05-09T16:45:09.889Z,41.67
2023-05-09T16:47:36.462Z,41.84
2023-05-09T16:50:02.951Z,43.10
2023-05-09T16:52:30.464Z,41.80
2023-05-09T16:54:59.175Z,43.34
2023-05-09T16:57:25.690Z,41.46
2023-05-09T16:59:53.389Z,43.27
2023-05-09T17:02:20.022Z,42.28
2023-05-09T17:04:46.638Z,44.85
2023-05-09T17:07:14.393Z,43.76
2023-05-09T17:09:41.352Z,44.46
2023-05-09T17:12:08.064Z,45.71
2023-05-09T17:14:34.526Z,47.97
2023-05-09T17:17:01.534Z,45.39
2023-05-09T17:19:28.100Z,45.00
2023-05-09T17:21:55.994Z,46.33
2023-05-09T17:24:22.552Z,47.99
2023-05-09T17:26:50.173Z,48.02
2023-05-09T17:29:16.667Z,47.49
2023-05-09T17:31:43.200Z,50.58
2023-05-09T17:34:09.748Z,48.23
2023-05-09T17:36:36.231Z,49.67
2023-05-09T17:39:03.029Z,49.37
2023-05-09T17:41:29.642Z,48.97
2023-05-09T17:43:57.379Z,49.22
2023-05-09T17:46:24.248Z,49.95
2023-05-09T17:48:50.852Z,49.96
2023-05-09T17:51:17.561Z,50.97
2023-05-09T17:53:44.278Z,52.83
2023-05-09T17:56:10.800Z,50.98
2023-05-09T17:58:37.272Z,50.72
2023-05-09T18:01:03.858Z,52.48
2023-05-09T18:03:32.202Z,53.98
2023-05-09T18:06:00.318Z,55.40
2023-05-09T18:08:26.936Z,55.68
2023-05-09T18:10:56.283Z,59.44
2023-05-09T18:13:23.106Z,60.76
2023-05-09T18:15:49.803Z,62.36
2023-05-09T18:18:16.317Z,64.69
2023-05-09T18:20:42.971Z,64.24
2023-05-09T18:23:09.827Z,63.90
2023-05-09T18:25:36.550Z,64.35
2023-05-09T18:28:03.442Z,64.48
2023-05-09T18:30:30.062Z,65.21
2023-05-09T18:33:00.147Z,63.23
2023-05-09T18:35:26.913Z,64.40
2023-05-09T18:37:53.436Z,64.93
2023-05-09T18:40:20.036Z,67.87
2023-05-09T18:42:46.546Z,68.43
2023-05-09T18:45:13.304Z,69.00
2023-05-09T18:47:39.848Z,70.97
2023-05-09T18:50:07.257Z,70.58
2023-05-09T18:52:34.390Z,72.00
2023-05-09T18:55:00.855Z,71.65
2023-05-09T18:57:28.210Z,72.64
2023-05-09T18:59:55.077Z,72.00
2023-05-09T19:02:22.344Z,72.78
2023-05-09T19:04:50.399Z,74.06
2023-05-09T19:07:17.083Z,73.40
2023-05-09T19:09:43.796Z,73.57
2023-05-09T19:12:10.323Z,73.30
2023-05-09T19:14:37.940Z,74.26
2023-05-09T19:17:07.767Z,75.31
2023-05-09T19:19:34.594Z,75.17
2023-05-09T19:22:01.666Z,76.28
2023-05-09T19:24:28.348Z,75.23
2023-05-09T19:26:54.940Z,76.78
2023-05-09T19:29:21.491Z,79.15
2023-05-09T19:31:48.042Z,78.52
2023-05-09T19:34:14.557Z,80.26
2023-05-09T19:36:41.050Z,79.80
2023-05-09T19:39:08.860Z,79.46
2023-05-09T19:41:35.966Z,80.18
2023-05-09T19:44:02.808Z,80.35
2023-05-09T19:46:29.339Z,79.66
2023-05-09T19:48:56.051Z,79.09
2023-05-09T19:51:22.865Z,79.29
2023-05-09T19:53:49.621Z,79.19
2023-05-09T19:56:16.349Z,79.94
2023-05-09T19:58:43.421Z,80.63
2023-05-09T20:01:10.097Z,81.48
2023-05-09T20:03:37.121Z,82.32
2023-05-09T20:06:03.845Z,81.84
2023-05-09T20:08:31.118Z,80.12
2023-05-09T20:10:57.708Z,80.68
2023-05-09T20:13:24.448Z,80.36
2023-05-09T20:15:51.012Z,80.96
2023-05-09T20:18:17.576Z,81.15
2023-05-09T20:20:44.108Z,80.25
2023-05-09T20:23:10.711Z,81.61
2023-05-09T20:25:37.207Z,82.37
2023-05-09T20:28:03.681Z,82.63
2023-05-09T20:30:30.227Z,83.30
2023-05-09T20:32:58.479Z,82.92
2023-05-09T20:35:25.177Z,83.97
2023-05-09T20:37:51.633Z,83.91
2023-05-09T20:40:18.274Z,83.64
2023-05-09T20:42:44.963Z,81.77
2023-05-09T20:45:11.563Z,81.14
2023-05-09T20:47:39.292Z,81.93
2023-05-09T20:50:06.764Z,81.96
2023-05-09T20:52:33.220Z,82.78
2023-05-09T20:54:59.678Z,81.94
2023-05-09T20:57:26.235Z,82.11
2023-05-09T20:59:52.702Z,81.30
2023-05-09T21:02:19.202Z,77.32
2023-05-09T21:04:45.719Z,72.47
2023-05-09T21:07:12.389Z,73.05
2023-05-09T21:09:38.936Z,71.02
2023-05-09T21:12:05.619Z,66.94
2023-05-09T21:14:32.183Z,68.69
2023-05-09T21:16:58.756Z,68.50
2023-05-09T21:19:25.309Z,67.00
2023-05-09T21:21:51.744Z,66.38
2023-05-09T21:24:18.197Z,66.26
2023-05-09T21:26:44.707Z,67.40
2023-05-09T21:29:11.163Z,64.96
2023-05-09T21:31:37.733Z,64.85
2023-05-09T21:34:09.823Z,64.28
2023-05-09T21:36:38.325Z,68.36
2023-05-09T21:39:09.368Z,64.89
2023-05-09T21:41:39.331Z,66.63
2023-05-09T21:44:07.371Z,66.64
2023-05-09T21:46:34.789Z,67.71
2023-05-09T21:49:01.518Z,70.54
2023-05-09T21:51:28.528Z,72.43
2023-05-09T21:53:55.184Z,74.06
2023-05-09T21:56:22.266Z,71.78
2023-05-09T21:58:48.710Z,72.99
2023-05-09T22:01:15.916Z,71.20
2023-05-09T22:03:43.034Z,69.80
2023-05-09T22:06:09.582Z,69.14
2023-05-09T22:08:36.077Z,66.36
2023-05-09T22:11:02.764Z,67.66
2023-05-09T22:13:29.274Z,69.78
2023-05-09T22:15:55.848Z,69.88
2023-05-09T22:18:22.385Z,73.17
2023-05-09T22:20:48.879Z,74.32
2023-05-09T22:23:15.401Z,73.85
2023-05-09T22:25:41.877Z,75.36
2023-05-09T22:28:09.033Z,74.47
2023-05-09T22:30:36.051Z,74.85
2023-05-09T22:33:02.696Z,76.35
2023-05-09T22:35:29.369Z,77.19
2023-05-09T22:37:55.947Z,76.84
2023-05-09T22:40:22.410Z,74.98
2023-05-09T22:42:48.957Z,72.35
2023-05-09T22:45:15.816Z,74.14
2023-05-09T22:47:42.313Z,74.50
2023-05-09T22:50:09.955Z,74.28
2023-05-09T22:52:36.527Z,75.64
2023-05-09T22:55:03.395Z,75.63
2023-05-09T22:57:30.147Z,73.96
2023-05-09T22:59:56.776Z,75.41
2023-05-09T23:02:23.402Z,74.04
2023-05-09T23:04:49.921Z,74.02
2023-05-09T23:07:16.543Z,75.37
2023-05-09T23:09:43.098Z,75.24
2023-05-09T23:12:10.484Z,75.58
2023-05-09T23:14:37.135Z,73.02
2023-05-09T23:17:03.607Z,70.95
2023-05-09T23:19:30.128Z,72.36
2023-05-09T23:21:58.907Z,70.58
2023-05-09T23:24:25.524Z,69.99
2023-05-09T23:26:53.193Z,70.26
2023-05-09T23:29:19.774Z,70.31
2023-05-09T23:31:46.345Z,68.44
2023-05-09T23:34:12.975Z,68.10
2023-05-09T23:36:39.481Z,66.86
2023-05-09T23:39:06.369Z,66.13
2023-05-09T23:41:33.103Z,64.97
2023-05-09T23:43:59.698Z,64.35
2023-05-09T23:46:26.257Z,65.01
2023-05-09T23:48:52.753Z,64.76
2023-05-09T23:51:20.864Z,65.92
2023-05-09T23:53:47.495Z,66.59
2023-05-09T23:56:13.988Z,65.99
2023-05-09T23:58:40.629Z,67.93
